This is the latest recevied weather packets stored in our database for station/object N4DRV. If no packets are shown the sender has not sent any weather packets the latest 10 day(s).
| Time | Temp. | Humidity | Pressure | Rain* | Wind** | Luminosity | Snow |
|---|---|---|---|---|---|---|---|
| 1777617316 | 12.78° C | 81% | 1014.1 hPa | 0 mm | - | - | - |
| 1777613726 | 12.78° C | 83% | 1014.1 hPa | 0 mm | - | - | - |
| 1777612546 | 12.78° C | 84% | 1014 hPa | 0 mm | - | - | - |
| 1777611319 | 12.78° C | 82% | 1014.1 hPa | 0 mm | - | - | - |
| 1777607714 | 13.33° C | 79% | 1014.4 hPa | 0 mm | - | - | - |
| 1777607112 | 13.33° C | 79% | 1014.3 hPa | 0 mm | - | - | - |
| 1777601147 | 15.56° C | 68% | 1014.3 hPa | 0 mm | - | - | - |
| 1777599922 | 15.56° C | 69% | 1014.3 hPa | 0 mm | - | - | - |
| 1777599321 | 16.11° C | 68% | 1014.2 hPa | 0 mm | - | - | - |
| 1777598723 | 16.11° C | 68% | 1014 hPa | 0 mm | - | - | - |
| 1777595115 | 16.67° C | 66% | 1013.6 hPa | 0 mm | - | - | - |
| 1777594517 | 17.22° C | 66% | 1013.4 hPa | 0 mm | - | - | - |
| 1777593938 | 17.22° C | 66% | 1013.3 hPa | 0 mm | - | - | - |
| 1777593312 | 17.22° C | 65% | 1013.2 hPa | 0 mm | - | - | - |
| 1777590332 | 18.33° C | 64% | 1013 hPa | 0 mm | - | - | - |
| 1777585519 | 19.44° C | 62% | 1013 hPa | 0 mm | - | - | - |
| 1777580711 | 20° C | 62% | 1013.1 hPa | 0 mm | - | - | - |
| 1777575964 | 20.56° C | 67% | 1013 hPa | 0 mm | - | - | - |
| 1777574117 | 20° C | 68% | 1012.9 hPa | 0 mm | - | - | - |
| 1777570512 | 19.44° C | 73% | 1013.3 hPa | 0 mm | - | - | - |
| 1777568732 | 19.44° C | 76% | 1013.6 hPa | 0 mm | - | - | - |
| 1777566926 | 18.89° C | 79% | 1013.8 hPa | 0 mm | - | - | - |
| 1777562116 | 16.11° C | 90% | 1013.8 hPa | 0 mm | - | - | - |
| 1777561538 | 16.11° C | 89% | 1013.6 hPa | 0 mm | - | - | - |
| 1777560313 | 15° C | 92% | 1013.7 hPa | 0 mm | - | - | - |
* Rain latest hour (hover to see other rain measurements)
** Current wind speed in m/s (hover to see current wind gust speed)